Time;durP1;ratioP1;P1;durP2;ratioP2;P2;SDS_P1;SDS_P2;PMS_P1;PMS_P2;Temp;Humidity;BMP_temperature;BMP_pressure;BME280_temperature;BME280_humidity;BME280_pressure;Samples;Min_cycle;Max_cycle;Signal;HPM_P1;HPM_P2
2021/12/18 00:01:28;;;;;;;28.67;13.23;;;5.70;99.90;;;;;;5068444;28;20055;-77
2021/12/18 00:03:57;;;;;;;27.55;13.32;;;5.70;99.90;;;;;;5058809;28;20411;-77
2021/12/18 00:06:27;;;;;;;33.55;14.25;;;5.70;99.90;;;;;;5066571;28;20040;-78
2021/12/18 00:08:55;;;;;;;32.13;13.07;;;5.60;99.90;;;;;;5076633;28;20896;-77
2021/12/18 00:11:24;;;;;;;31.90;13.80;;;5.60;99.90;;;;;;5078168;28;20075;-78
2021/12/18 00:13:53;;;;;;;27.15;12.10;;;5.50;99.90;;;;;;5079589;28;20492;-76
2021/12/18 00:16:20;;;;;;;31.90;13.32;;;5.60;99.90;;;;;;5078942;28;20048;-77
2021/12/18 00:18:50;;;;;;;27.27;13.10;;;5.70;99.90;;;;;;5079122;28;20120;-77
2021/12/18 00:21:19;;;;;;;22.88;11.48;;;5.70;99.90;;;;;;5079959;28;20118;-78
2021/12/18 00:23:47;;;;;;;21.15;11.18;;;5.70;99.90;;;;;;5075866;28;20044;-78
2021/12/18 00:26:15;;;;;;;21.60;11.32;;;5.70;99.90;;;;;;5059424;28;20048;-77
2021/12/18 00:28:42;;;;;;;16.55;8.98;;;5.70;99.90;;;;;;5070908;28;20124;-77
2021/12/18 00:31:11;;;;;;;22.20;10.20;;;5.60;99.90;;;;;;5077350;28;20515;-77
2021/12/18 00:33:39;;;;;;;22.83;10.57;;;5.60;99.90;;;;;;5078953;28;20059;-78
2021/12/18 00:36:06;;;;;;;19.40;10.48;;;5.50;99.90;;;;;;5078345;28;20055;-78
2021/12/18 00:38:34;;;;;;;21.55;10.85;;;5.50;99.90;;;;;;5063282;28;20091;-78
2021/12/18 00:41:15;;;;;;;27.05;11.50;;;5.40;99.90;;;;;;5059013;28;20049;-79
2021/12/18 00:46:25;;;;;;;24.67;11.88;;;5.40;99.90;;;;;;5058665;28;20049;-80
2021/12/18 00:48:53;;;;;;;22.13;11.30;;;5.20;99.90;;;;;;5060990;28;20443;-79
2021/12/18 00:51:20;;;;;;;17.65;9.15;;;5.20;99.90;;;;;;5078982;28;20048;-79
2021/12/18 00:53:47;;;;;;;25.08;10.75;;;5.10;99.90;;;;;;5080966;28;20083;-79
2021/12/18 00:56:15;;;;;;;27.65;11.90;;;5.20;99.90;;;;;;5083752;28;20123;-79
2021/12/18 00:58:43;;;;;;;18.77;9.93;;;5.10;99.90;;;;;;5092600;28;20055;-78
2021/12/18 01:01:11;;;;;;;17.45;9.82;;;5.10;99.90;;;;;;5086083;28;20529;-79
2021/12/18 01:03:42;;;;;;;21.85;10.18;;;5.10;99.90;;;;;;5057334;28;20124;-77
2021/12/18 01:06:11;;;;;;;18.15;9.60;;;5.00;99.90;;;;;;5056624;28;20125;-77
2021/12/18 01:08:40;;;;;;;22.20;9.23;;;4.90;99.90;;;;;;5057172;28;20056;-79
2021/12/18 01:11:30;;;;;;;13.98;8.38;;;4.80;99.90;;;;;;5056630;28;20041;-79
2021/12/18 01:14:16;;;;;;;17.73;8.68;;;4.90;99.90;;;;;;5073038;28;20402;-77
2021/12/18 01:16:51;;;;;;;17.90;8.82;;;5.00;99.90;;;;;;5058158;28;20099;-79
2021/12/18 01:24:54;;;;;;;14.18;8.05;;;4.90;99.90;;;;;;5071656;28;20092;-80
2021/12/18 01:27:22;;;;;;;16.25;8.00;;;4.90;99.90;;;;;;5078954;28;20054;-79
2021/12/18 01:29:50;;;;;;;17.10;8.55;;;4.90;99.90;;;;;;5078569;28;20036;-80
2021/12/18 01:32:18;;;;;;;15.80;8.23;;;4.90;99.90;;;;;;5079620;28;20036;-80
2021/12/18 01:34:48;;;;;;;15.90;8.27;;;4.90;99.90;;;;;;5078789;28;20051;-79
2021/12/18 01:37:16;;;;;;;17.55;9.20;;;4.90;99.90;;;;;;5080123;28;20499;-80
2021/12/18 01:39:44;;;;;;;15.50;8.27;;;4.80;99.90;;;;;;5079522;28;20036;-79
2021/12/18 01:42:47;;;;;;;17.63;8.60;;;4.80;99.90;;;;;;5079680;28;20542;-79
2021/12/18 01:45:18;;;;;;;18.92;8.90;;;4.80;99.90;;;;;;5055181;28;20427;-79
2021/12/18 01:53:19;;;;;;;16.73;8.68;;;4.70;99.90;;;;;;5054755;28;20396;-76
2021/12/18 01:55:49;;;;;;;17.40;9.07;;;4.70;99.90;;;;;;5054830;28;20099;-78
2021/12/18 01:58:21;;;;;;;19.00;9.10;;;4.60;99.90;;;;;;5055221;28;20057;-80
2021/12/18 02:00:52;;;;;;;19.45;9.10;;;4.60;99.90;;;;;;5056857;28;20041;-78
2021/12/18 02:03:20;;;;;;;14.50;8.25;;;4.50;99.90;;;;;;5056536;28;20408;-78
2021/12/18 02:05:50;;;;;;;16.30;8.63;;;4.50;99.90;;;;;;5067098;28;20055;-78
2021/12/18 02:08:20;;;;;;;18.20;9.40;;;4.40;99.90;;;;;;5073498;28;20040;-77
2021/12/18 02:10:54;;;;;;;15.50;8.82;;;4.40;99.90;;;;;;5073964;28;20094;-76
2021/12/18 02:13:35;;;;;;;18.23;8.60;;;4.30;99.90;;;;;;5073714;28;20051;-78
2021/12/18 02:21:34;;;;;;;16.58;8.52;;;4.30;99.90;;;;;;5075408;28;20035;-79
2021/12/18 02:24:02;;;;;;;16.88;8.38;;;4.20;99.90;;;;;;5075564;28;20098;-76
2021/12/18 02:26:30;;;;;;;14.18;7.80;;;4.20;99.90;;;;;;5070108;28;20574;-78
2021/12/18 02:29:00;;;;;;;15.57;7.97;;;4.10;99.90;;;;;;5055148;28;20492;-78
2021/12/18 02:31:28;;;;;;;17.95;8.45;;;4.20;99.90;;;;;;5055901;28;20037;-78
2021/12/18 02:33:56;;;;;;;15.52;9.63;;;4.20;99.90;;;;;;5054605;28;20049;-77
2021/12/18 02:36:25;;;;;;;15.82;8.65;;;4.20;99.90;;;;;;5070163;28;20047;-77
2021/12/18 02:39:17;;;;;;;16.23;9.75;;;4.20;99.90;;;;;;5061643;28;20424;-77
2021/12/18 02:41:55;;;;;;;16.80;8.55;;;4.20;99.90;;;;;;5056815;28;20047;-78
2021/12/18 02:44:23;;;;;;;16.17;8.50;;;4.10;99.90;;;;;;5063552;28;20057;-78
2021/12/18 02:46:50;;;;;;;16.85;8.65;;;4.20;99.90;;;;;;5063576;28;20197;-77
2021/12/18 02:49:18;;;;;;;12.55;7.95;;;4.10;99.90;;;;;;5059732;28;20128;-79
2021/12/18 02:51:45;;;;;;;13.48;8.27;;;4.10;99.90;;;;;;5074585;28;20044;-77
2021/12/18 02:54:14;;;;;;;18.50;8.40;;;4.10;99.90;;;;;;5077177;28;20044;-79
2021/12/18 02:56:42;;;;;;;15.82;9.02;;;4.00;99.90;;;;;;5077103;28;20044;-80
2021/12/18 02:59:09;;;;;;;15.98;8.23;;;4.00;99.90;;;;;;5078703;28;20080;-78
2021/12/18 03:01:39;;;;;;;12.75;7.32;;;4.00;99.90;;;;;;5079217;28;20094;-79
2021/12/18 03:04:15;;;;;;;12.68;7.47;;;4.00;99.90;;;;;;5081098;28;20127;-77
2021/12/18 03:06:46;;;;;;;15.25;8.75;;;4.00;99.90;;;;;;5065120;28;20073;-78
2021/12/18 03:09:49;;;;;;;16.92;8.75;;;4.00;99.90;;;;;;5074826;28;20442;-78
2021/12/18 03:23:32;;;;;;;16.70;8.20;;;4.00;99.90;;;;;;5081408;28;20072;-79
2021/12/18 03:26:01;;;;;;;14.63;8.40;;;4.10;99.90;;;;;;5081366;28;20047;-77
2021/12/18 03:28:30;;;;;;;16.23;8.25;;;4.00;99.90;;;;;;5079420;28;20490;-78
2021/12/18 03:30:58;;;;;;;12.75;7.32;;;3.90;99.90;;;;;;5080035;28;20446;-79
2021/12/18 03:33:27;;;;;;;13.68;7.90;;;4.00;99.90;;;;;;5078133;28;20052;-80
2021/12/18 03:35:55;;;;;;;14.90;8.63;;;4.00;99.90;;;;;;5082030;28;20487;-79
2021/12/18 03:38:23;;;;;;;16.40;8.20;;;4.00;99.90;;;;;;5080955;28;20051;-80
2021/12/18 03:40:50;;;;;;;16.38;8.60;;;3.90;99.90;;;;;;5078496;28;20094;-79
2021/12/18 03:43:19;;;;;;;14.25;8.95;;;3.90;99.90;;;;;;5078619;28;20057;-80
2021/12/18 03:45:47;;;;;;;15.80;8.55;;;4.00;99.90;;;;;;5079992;28;20047;-79
2021/12/18 03:48:15;;;;;;;13.00;7.95;;;4.00;99.90;;;;;;5082331;28;20053;-78
2021/12/18 03:50:46;;;;;;;14.65;8.18;;;3.90;99.90;;;;;;5078027;28;20082;-78
2021/12/18 03:53:13;;;;;;;15.98;8.25;;;3.90;99.90;;;;;;5079141;28;20036;-79
2021/12/18 03:55:40;;;;;;;15.32;7.82;;;3.80;99.90;;;;;;5078129;28;20396;-79
2021/12/18 03:58:08;;;;;;;16.15;8.23;;;3.80;99.90;;;;;;5077365;28;20412;-80
2021/12/18 04:00:37;;;;;;;15.60;8.65;;;3.80;99.90;;;;;;5079805;28;20469;-79
2021/12/18 04:03:05;;;;;;;14.57;8.27;;;3.80;99.90;;;;;;5078656;28;20068;-79
2021/12/18 04:05:32;;;;;;;14.82;8.10;;;3.80;99.90;;;;;;5074921;28;20056;-77
2021/12/18 04:08:08;;;;;;;13.65;8.05;;;3.80;99.90;;;;;;5056048;28;20084;-77
2021/12/18 04:10:36;;;;;;;;;;;3.80;99.90;;;;;;5063812;28;20040;-77
2021/12/18 04:13:04;;;;;;;15.43;7.80;;;3.80;99.90;;;;;;5074935;28;19920;-79
2021/12/18 04:15:32;;;;;;;15.50;7.85;;;3.90;99.90;;;;;;5074516;28;20098;-78
2021/12/18 04:18:00;;;;;;;15.95;7.70;;;3.90;99.90;;;;;;5057531;28;20546;-78
2021/12/18 04:20:28;;;;;;;15.20;9.02;;;3.90;99.90;;;;;;5056678;28;20794;-78
2021/12/18 04:22:56;;;;;;;16.52;8.52;;;3.90;99.90;;;;;;5055906;28;20476;-78
2021/12/18 04:25:24;;;;;;;14.80;7.85;;;4.00;99.90;;;;;;5054684;28;20048;-78
2021/12/18 04:27:52;;;;;;;12.93;7.80;;;4.00;99.90;;;;;;5056344;28;20056;-78
2021/12/18 04:30:19;;;;;;;17.85;8.27;;;3.90;1.00;;;;;;5056552;28;20045;-78
2021/12/18 04:32:47;;;;;;;14.52;8.05;;;3.80;1.00;;;;;;5056726;28;20143;-78
2021/12/18 04:35:16;;;;;;;13.77;8.60;;;3.80;1.00;;;;;;5057335;28;20049;-78
2021/12/18 04:37:44;;;;;;;17.13;7.93;;;3.80;1.00;;;;;;5073962;28;20388;-79
2021/12/18 04:40:12;;;;;;;18.77;8.88;;;3.80;1.00;;;;;;5076769;28;20099;-77
2021/12/18 04:42:39;;;;;;;16.20;8.30;;;3.80;1.00;;;;;;5074884;28;20040;-77
2021/12/18 04:45:07;;;;;;;18.25;8.40;;;3.80;1.00;;;;;;5082592;28;20071;-78
2021/12/18 04:47:35;;;;;;;16.75;9.18;;;3.80;1.00;;;;;;5075605;28;20143;-79
2021/12/18 04:50:02;;;;;;;15.85;8.60;;;3.80;1.00;;;;;;5088611;28;20411;-78
2021/12/18 04:52:31;;;;;;;17.45;8.88;;;3.80;1.00;;;;;;5077895;28;20040;-79
2021/12/18 04:54:58;;;;;;;15.20;8.80;;;3.90;1.00;;;;;;5079278;28;20072;-78
2021/12/18 04:57:26;;;;;;;16.85;8.77;;;3.90;1.00;;;;;;5071836;28;20076;-79
2021/12/18 04:59:54;;;;;;;14.65;8.32;;;3.90;1.00;;;;;;5073291;28;20037;-80
2021/12/18 05:02:32;;;;;;;15.35;7.97;;;3.90;1.00;;;;;;5073035;28;20111;-79
2021/12/18 05:04:59;;;;;;;20.20;8.50;;;3.80;1.00;;;;;;5069350;28;20045;-78
2021/12/18 05:07:28;;;;;;;17.98;9.32;;;3.80;1.00;;;;;;5065860;28;20055;-81
2021/12/18 05:09:57;;;;;;;16.15;8.65;;;3.80;1.00;;;;;;5058099;28;20128;-78
2021/12/18 05:12:24;;;;;;;15.82;8.05;;;3.80;1.00;;;;;;5076408;28;20044;-79
2021/12/18 05:14:52;;;;;;;13.55;8.13;;;3.80;1.00;;;;;;5077522;28;20044;-78
2021/12/18 05:17:19;;;;;;;13.63;8.07;;;3.80;1.00;;;;;;5077020;28;20514;-80
2021/12/18 05:19:47;;;;;;;17.48;9.00;;;3.80;1.00;;;;;;5082746;28;20139;-76
2021/12/18 05:22:15;;;;;;;16.52;8.75;;;3.80;1.00;;;;;;5078654;28;20049;-77
2021/12/18 05:24:42;;;;;;;15.25;8.30;;;3.80;1.00;;;;;;5073988;28;20052;-79
2021/12/18 05:27:11;;;;;;;15.02;8.50;;;3.80;1.00;;;;;;5076309;28;20048;-79
2021/12/18 05:29:39;;;;;;;17.92;8.80;;;3.80;1.00;;;;;;5076528;28;20036;-78
2021/12/18 05:32:07;;;;;;;19.05;9.38;;;3.80;1.00;;;;;;5085887;28;20147;-80
2021/12/18 05:34:37;;;;;;;15.57;8.80;;;3.80;1.00;;;;;;5075766;28;20072;-79
2021/12/18 05:37:19;;;;;;;20.00;9.40;;;3.80;1.00;;;;;;5074626;28;20048;-79
2021/12/18 05:39:48;;;;;;;18.20;9.00;;;3.80;1.00;;;;;;5076334;28;20055;-80
2021/12/18 05:42:17;;;;;;;22.33;9.05;;;3.90;1.00;;;;;;5069123;28;20041;-80
2021/12/18 05:44:46;;;;;;;14.60;9.55;;;3.70;1.00;;;;;;5068225;28;20061;-78
2021/12/18 05:47:14;;;;;;;19.10;9.35;;;3.80;1.00;;;;;;5075907;28;20043;-78
2021/12/18 05:49:41;;;;;;;14.93;8.68;;;3.80;1.00;;;;;;5074380;28;20048;-77
2021/12/18 05:52:10;;;;;;;17.65;9.77;;;3.80;1.00;;;;;;5070868;28;20175;-78
2021/12/18 05:54:38;;;;;;;16.75;9.57;;;3.70;1.00;;;;;;5055010;28;20056;-79
2021/12/18 05:57:07;;;;;;;15.55;9.82;;;3.70;1.00;;;;;;5055954;28;20037;-79
2021/12/18 05:59:36;;;;;;;18.70;9.68;;;3.80;1.00;;;;;;5072925;28;20469;-77
2021/12/18 06:02:03;;;;;;;20.48;10.57;;;3.70;1.00;;;;;;5075456;28;20036;-77
2021/12/18 06:04:31;;;;;;;16.85;9.35;;;3.80;1.00;;;;;;5071997;28;20052;-77
2021/12/18 06:07:04;;;;;;;25.67;10.77;;;3.70;1.00;;;;;;5061798;28;20051;-79
2021/12/18 06:09:32;;;;;;;15.27;9.65;;;3.70;1.00;;;;;;5052953;28;20055;-79
2021/12/18 06:12:00;;;;;;;15.07;9.18;;;3.70;1.00;;;;;;5078129;28;20098;-80
2021/12/18 06:14:28;;;;;;;15.02;8.82;;;3.70;1.00;;;;;;5072553;28;20044;-77
2021/12/18 06:16:57;;;;;;;17.83;9.55;;;3.60;1.00;;;;;;5073282;28;20068;-78
2021/12/18 06:19:24;;;;;;;18.95;11.43;;;3.50;1.00;;;;;;5073617;28;20056;-76
2021/12/18 06:21:52;;;;;;;17.35;9.63;;;3.50;1.00;;;;;;5073821;28;20044;-78
2021/12/18 06:24:20;;;;;;;17.13;9.55;;;3.50;1.00;;;;;;5072396;28;20052;-78
2021/12/18 06:26:47;;;;;;;16.17;9.50;;;3.50;1.00;;;;;;5073476;28;20032;-78
2021/12/18 06:29:15;;;;;;;15.95;9.77;;;3.50;1.00;;;;;;5075051;28;20044;-78
2021/12/18 06:31:42;;;;;;;19.45;11.40;;;3.50;1.00;;;;;;5072632;28;20542;-79
2021/12/18 06:34:12;;;;;;;22.17;8.93;;;3.60;1.00;;;;;;5074677;28;20044;-80
2021/12/18 06:36:40;;;;;;;15.73;9.23;;;3.60;1.00;;;;;;5063989;28;20037;-79
2021/12/18 06:39:07;;;;;;;17.77;9.45;;;3.60;1.00;;;;;;5071760;28;20044;-80
2021/12/18 06:41:35;;;;;;;17.27;9.27;;;3.60;1.00;;;;;;5075358;28;20237;-80
2021/12/18 06:44:02;;;;;;;17.17;9.70;;;3.60;1.00;;;;;;5055424;28;20061;-79
2021/12/18 06:46:31;;;;;;;20.90;9.75;;;3.60;1.00;;;;;;5054820;28;20045;-78
2021/12/18 06:48:58;;;;;;;17.73;10.02;;;3.70;1.00;;;;;;5082239;28;20084;-77
2021/12/18 06:51:27;;;;;;;21.75;11.63;;;3.60;1.00;;;;;;5064193;28;20037;-78
2021/12/18 06:53:55;;;;;;;17.15;9.38;;;3.70;1.00;;;;;;5072341;28;20045;-77
2021/12/18 06:56:22;;;;;;;16.35;8.93;;;3.70;1.00;;;;;;5069981;28;20052;-78
2021/12/18 06:58:50;;;;;;;17.52;9.07;;;3.70;1.00;;;;;;5082205;28;20055;-80
2021/12/18 07:01:17;;;;;;;23.92;12.60;;;3.70;1.00;;;;;;5075009;28;20029;-80
2021/12/18 07:03:45;;;;;;;14.15;8.60;;;3.80;1.00;;;;;;5076408;28;20040;-78
2021/12/18 07:06:12;;;;;;;16.00;9.77;;;3.80;1.00;;;;;;5089015;28;20048;-79
2021/12/18 07:08:42;;;;;;;18.15;9.20;;;3.80;1.00;;;;;;5073224;28;20036;-80
2021/12/18 07:11:09;;;;;;;17.83;9.38;;;3.80;1.00;;;;;;5075862;28;20475;-81
2021/12/18 07:13:36;;;;;;;18.45;10.20;;;3.90;1.00;;;;;;5077513;28;20056;-79
2021/12/18 07:16:04;;;;;;;21.67;9.80;;;4.00;1.00;;;;;;5075460;28;20072;-81
2021/12/18 07:18:32;;;;;;;16.40;9.95;;;3.80;1.00;;;;;;5075135;28;20049;-80
2021/12/18 07:21:00;;;;;;;19.50;9.60;;;3.80;1.00;;;;;;5077526;28;20037;-80
2021/12/18 07:23:27;;;;;;;18.08;10.65;;;3.90;1.00;;;;;;5075460;28;20067;-79
2021/12/18 07:25:56;;;;;;;16.27;9.10;;;4.00;1.00;;;;;;5077966;28;20055;-78
2021/12/18 07:28:24;;;;;;;19.10;10.00;;;3.90;99.90;;;;;;5080124;28;20037;-78
2021/12/18 07:30:52;;;;;;;16.90;9.77;;;3.90;99.90;;;;;;5079949;28;20055;-79
2021/12/18 07:33:19;;;;;;;17.15;9.05;;;4.00;99.90;;;;;;5077058;28;20049;-80
2021/12/18 07:35:47;;;;;;;17.17;9.15;;;3.90;99.90;;;;;;5073187;28;20101;-79
2021/12/18 07:38:17;;;;;;;16.98;10.15;;;4.00;99.90;;;;;;5073848;28;20484;-81
2021/12/18 07:40:45;;;;;;;15.88;8.68;;;4.10;99.90;;;;;;5075455;28;20500;-80
2021/12/18 07:43:14;;;;;;;17.27;9.82;;;4.20;99.90;;;;;;5073211;28;20095;-80
2021/12/18 07:45:41;;;;;;;19.58;9.50;;;4.30;99.90;;;;;;5074081;28;20155;-81
2021/12/18 07:48:09;;;;;;;19.33;9.70;;;4.30;99.90;;;;;;5073337;28;20519;-81
2021/12/18 07:50:36;;;;;;;19.75;10.82;;;4.40;99.90;;;;;;5076226;28;20083;-78
2021/12/18 07:53:04;;;;;;;18.33;9.70;;;4.40;99.90;;;;;;5076435;28;20530;-80
2021/12/18 07:55:32;;;;;;;16.67;9.18;;;4.40;99.90;;;;;;5076538;28;20216;-81
2021/12/18 07:57:59;;;;;;;15.98;8.82;;;4.40;99.90;;;;;;5078386;28;20111;-77
2021/12/18 08:00:28;;;;;;;16.65;9.68;;;4.30;99.90;;;;;;5078202;28;20467;-81
2021/12/18 08:02:56;;;;;;;18.23;10.07;;;4.30;99.90;;;;;;5072184;28;20094;-77
2021/12/18 08:05:24;;;;;;;22.48;10.82;;;4.40;99.90;;;;;;5077496;28;20049;-81
2021/12/18 08:07:51;;;;;;;20.15;10.05;;;4.50;99.90;;;;;;5074800;28;20128;-77
2021/12/18 08:10:19;;;;;;;19.48;9.77;;;4.40;99.90;;;;;;5073679;28;20067;-77
2021/12/18 08:12:46;;;;;;;23.70;13.40;;;4.40;99.90;;;;;;5076109;28;20028;-79
2021/12/18 08:15:14;;;;;;;32.75;16.95;;;4.30;99.90;;;;;;5072057;28;20492;-78
2021/12/18 08:17:43;;;;;;;27.77;13.65;;;4.40;99.90;;;;;;5074755;28;20059;-83
2021/12/18 08:20:11;;;;;;;25.40;11.40;;;4.50;99.90;;;;;;5075512;28;20127;-78
2021/12/18 08:22:39;;;;;;;21.33;12.23;;;4.60;99.90;;;;;;5073479;28;20128;-79
2021/12/18 08:25:07;;;;;;;27.08;12.18;;;4.70;99.90;;;;;;5072439;28;20100;-79
2021/12/18 08:27:34;;;;;;;22.73;11.25;;;4.90;99.90;;;;;;5077107;28;20131;-79
2021/12/18 08:30:04;;;;;;;21.33;11.00;;;4.90;99.90;;;;;;5085633;28;20047;-78
2021/12/18 08:32:31;;;;;;;35.05;17.33;;;4.90;99.90;;;;;;5067980;28;20116;-77
2021/12/18 08:35:00;;;;;;;26.63;12.48;;;5.00;99.90;;;;;;5070267;28;20135;-75
2021/12/18 08:37:28;;;;;;;26.80;13.13;;;4.80;99.90;;;;;;5055491;28;20140;-77
2021/12/18 08:39:56;;;;;;;19.75;10.93;;;4.90;99.90;;;;;;5054868;28;20145;-77
2021/12/18 08:42:24;;;;;;;25.67;12.50;;;4.90;99.90;;;;;;5064446;28;20041;-76
2021/12/18 08:44:52;;;;;;;27.10;14.52;;;4.70;99.90;;;;;;5075334;28;20076;-76
2021/12/18 08:47:20;;;;;;;21.60;11.75;;;4.60;99.90;;;;;;5074043;28;20052;-78
2021/12/18 08:49:48;;;;;;;20.65;11.82;;;4.70;99.90;;;;;;5074669;28;20045;-77
2021/12/18 08:52:17;;;;;;;24.45;12.35;;;4.80;99.90;;;;;;5076235;28;20045;-77
2021/12/18 08:54:45;;;;;;;24.63;10.73;;;4.90;99.90;;;;;;5073901;28;20234;-77
2021/12/18 08:57:13;;;;;;;17.67;9.32;;;5.00;99.90;;;;;;5075765;28;20404;-77
2021/12/18 08:59:41;;;;;;;19.10;10.25;;;5.00;99.90;;;;;;5074549;28;20457;-76
2021/12/18 09:02:10;;;;;;;20.52;10.75;;;5.10;99.90;;;;;;5074826;28;20044;-78
2021/12/18 09:04:39;;;;;;;14.82;9.40;;;5.20;99.90;;;;;;5074655;28;20045;-78
2021/12/18 09:07:07;;;;;;;26.00;11.95;;;5.20;99.90;;;;;;5075181;28;20044;-77
2021/12/18 09:09:37;;;;;;;18.15;9.95;;;5.20;99.90;;;;;;5073906;28;20548;-78
2021/12/18 09:12:05;;;;;;;18.15;11.20;;;5.20;99.90;;;;;;5075371;28;20041;-76
2021/12/18 09:14:33;;;;;;;23.83;13.50;;;5.20;99.90;;;;;;5073892;28;20048;-77
2021/12/18 09:17:00;;;;;;;21.85;12.30;;;5.10;99.90;;;;;;5077792;28;20063;-79
2021/12/18 09:19:27;;;;;;;20.88;10.02;;;5.10;99.90;;;;;;5075530;28;20053;-77
2021/12/18 09:21:59;;;;;;;23.77;12.70;;;5.00;99.90;;;;;;5074150;28;20496;-78
2021/12/18 09:24:27;;;;;;;21.67;10.90;;;5.00;99.90;;;;;;5073569;28;20123;-77
2021/12/18 09:26:57;;;;;;;22.63;11.65;;;4.90;99.90;;;;;;5079158;28;20403;-78
2021/12/18 09:29:25;;;;;;;22.10;12.00;;;5.00;99.90;;;;;;5061184;28;20044;-78
2021/12/18 09:31:52;;;;;;;24.45;11.43;;;4.90;99.90;;;;;;5053609;28;20085;-78
2021/12/18 09:34:20;;;;;;;19.35;11.10;;;4.90;99.90;;;;;;5053997;28;20092;-78
2021/12/18 09:36:47;;;;;;;20.00;10.57;;;4.90;99.90;;;;;;5055075;28;20550;-76
2021/12/18 09:39:15;;;;;;;20.17;10.73;;;5.00;99.90;;;;;;5054232;28;20049;-78
2021/12/18 09:41:47;;;;;;;18.80;9.88;;;5.00;99.90;;;;;;5055294;28;20087;-76
2021/12/18 09:44:22;;;;;;;22.00;12.27;;;5.20;99.90;;;;;;5053366;28;20049;-76
2021/12/18 09:46:50;;;;;;;29.47;15.77;;;5.30;99.90;;;;;;5053991;28;20508;-77
2021/12/18 09:49:18;;;;;;;23.02;13.55;;;5.50;99.90;;;;;;5055055;28;20037;-77
2021/12/18 09:51:45;;;;;;;24.23;13.23;;;5.50;99.90;;;;;;5054592;28;20064;-79
2021/12/18 09:54:13;;;;;;;24.15;13.35;;;5.60;99.90;;;;;;5055613;28;20504;-78
2021/12/18 09:56:41;;;;;;;20.40;11.27;;;5.70;99.90;;;;;;5054099;28;20049;-78
2021/12/18 09:59:08;;;;;;;20.42;10.75;;;5.70;99.90;;;;;;5057376;28;20041;-77
2021/12/18 10:01:37;;;;;;;25.45;12.45;;;5.60;99.90;;;;;;5061035;28;20037;-78
2021/12/18 10:04:06;;;;;;;26.40;13.73;;;5.50;99.90;;;;;;5058728;28;20404;-78
2021/12/18 10:06:38;;;;;;;24.75;14.20;;;5.60;99.90;;;;;;5056096;28;20508;-79
2021/12/18 10:09:08;;;;;;;30.40;17.05;;;5.60;99.90;;;;;;5059718;28;20048;-78
2021/12/18 10:11:44;;;;;;;29.20;15.48;;;5.70;99.90;;;;;;5061588;28;20064;-78
2021/12/18 10:14:11;;;;;;;28.25;16.27;;;5.70;99.90;;;;;;5062312;28;20049;-77
2021/12/18 10:16:46;;;;;;;27.33;13.48;;;5.80;99.90;;;;;;5061846;28;20048;-76
2021/12/18 10:19:29;;;;;;;19.95;11.27;;;5.90;99.90;;;;;;5058762;28;20049;-78
2021/12/18 10:21:59;;;;;;;21.42;12.70;;;5.90;99.90;;;;;;5055584;28;20053;-78
2021/12/18 10:24:28;;;;;;;28.35;14.38;;;5.90;99.90;;;;;;5056632;28;20072;-78
2021/12/18 10:26:56;;;;;;;34.03;17.85;;;5.90;99.90;;;;;;5056802;28;20384;-78
2021/12/18 10:29:27;;;;;;;36.25;20.13;;;6.00;99.90;;;;;;5057432;28;20113;-78
2021/12/18 10:32:05;;;;;;;34.65;18.80;;;5.90;99.90;;;;;;5056640;28;20045;-78
2021/12/18 10:34:34;;;;;;;28.52;16.20;;;5.80;99.90;;;;;;5056111;28;20049;-78
2021/12/18 10:37:14;;;;;;;35.22;17.00;;;5.70;99.90;;;;;;5056861;28;20091;-78
2021/12/18 10:39:44;;;;;;;28.20;14.90;;;5.70;99.90;;;;;;5055998;28;20053;-77
2021/12/18 10:42:23;;;;;;;27.48;14.80;;;5.70;99.90;;;;;;5057360;28;20041;-77
2021/12/18 10:45:13;;;;;;;25.48;13.18;;;5.80;99.90;;;;;;5054850;28;20053;-77
2021/12/18 10:47:47;;;;;;;26.33;14.60;;;5.90;99.90;;;;;;5051586;28;20127;-78
2021/12/18 10:50:20;;;;;;;34.47;19.42;;;5.90;99.90;;;;;;5054263;28;20056;-78
2021/12/18 10:52:54;;;;;;;34.95;17.48;;;6.00;99.90;;;;;;5054774;28;20044;-78
2021/12/18 10:55:28;;;;;;;31.38;17.23;;;6.00;99.90;;;;;;5055188;28;20045;-78
2021/12/18 10:57:56;;;;;;;41.42;21.80;;;6.10;99.90;;;;;;5054689;28;20059;-78
2021/12/18 11:00:50;;;;;;;35.03;18.30;;;6.10;99.90;;;;;;5053311;28;20048;-78
2021/12/18 11:03:35;;;;;;;27.17;15.65;;;6.20;99.90;;;;;;5039548;28;20099;-77
2021/12/18 11:06:05;;;;;;;24.80;13.63;;;6.20;99.90;;;;;;5052973;28;20045;-78
2021/12/18 11:08:34;;;;;;;26.52;15.02;;;6.20;99.90;;;;;;5054400;28;20114;-77
2021/12/18 11:13:38;;;;;;;31.15;16.85;;;6.10;99.90;;;;;;5052789;28;20170;-77
2021/12/18 11:13:53;;;;;;;32.17;16.42;;;6.00;99.90;;;;;;5052686;28;20084;-76
2021/12/18 11:16:22;;;;;;;29.90;17.05;;;6.00;99.90;;;;;;5052235;28;20045;-76
2021/12/18 11:18:52;;;;;;;33.00;17.27;;;6.00;99.90;;;;;;5054008;28;20068;-78
2021/12/18 11:21:19;;;;;;;30.55;15.85;;;6.00;99.90;;;;;;5052694;28;20055;-78
2021/12/18 11:23:52;;;;;;;36.58;18.00;;;5.90;99.90;;;;;;5054979;28;20048;-76
2021/12/18 11:26:23;;;;;;;26.58;15.27;;;5.90;99.90;;;;;;5056216;28;20056;-78
2021/12/18 11:28:52;;;;;;;31.95;16.92;;;5.80;99.90;;;;;;5057063;28;20144;-78
2021/12/18 11:31:20;;;;;;;33.70;16.60;;;5.80;99.90;;;;;;5056695;28;20121;-77
2021/12/18 11:33:48;;;;;;;31.95;16.60;;;5.80;99.90;;;;;;5056851;28;20045;-78
2021/12/18 11:36:17;;;;;;;29.52;17.27;;;5.80;99.90;;;;;;5060077;28;20072;-77
2021/12/18 11:38:46;;;;;;;31.17;17.80;;;5.80;99.90;;;;;;5065546;28;20068;-78
2021/12/18 11:41:17;;;;;;;30.92;17.00;;;5.90;99.90;;;;;;5064704;28;20131;-77
2021/12/18 11:43:46;;;;;;;32.85;18.05;;;5.90;99.90;;;;;;5058346;28;20108;-78
2021/12/18 11:46:34;;;;;;;34.45;19.13;;;5.90;99.90;;;;;;5059323;28;20052;-77
2021/12/18 11:49:04;;;;;;;32.05;17.73;;;5.90;99.90;;;;;;5058789;28;20041;-76
2021/12/18 11:51:33;;;;;;;34.58;18.55;;;5.80;99.90;;;;;;5063689;28;20041;-77
2021/12/18 11:54:03;;;;;;;45.10;23.88;;;5.80;99.90;;;;;;5064692;28;20041;-78
2021/12/18 11:56:47;;;;;;;42.25;20.85;;;5.80;99.90;;;;;;5061595;28;20045;-78
2021/12/18 11:59:15;;;;;;;33.03;17.80;;;5.90;99.90;;;;;;5057544;28;20049;-78
2021/12/18 12:01:48;;;;;;;31.45;17.27;;;6.00;99.90;;;;;;5056764;28;20072;-78
2021/12/18 12:04:16;;;;;;;35.35;18.60;;;5.90;99.90;;;;;;5055617;28;20049;-78
2021/12/18 12:06:45;;;;;;;26.67;14.70;;;5.80;99.90;;;;;;5055224;28;20136;-78
2021/12/18 12:09:26;;;;;;;26.58;15.20;;;5.80;99.90;;;;;;5055592;28;20473;-77
2021/12/18 12:11:57;;;;;;;32.80;16.58;;;5.80;99.90;;;;;;5055621;28;20067;-79
2021/12/18 12:14:26;;;;;;;31.48;16.15;;;5.90;99.90;;;;;;5055432;28;20055;-78
2021/12/18 12:17:12;;;;;;;40.03;21.33;;;5.80;99.90;;;;;;5055287;28;20048;-78
2021/12/18 12:19:57;;;;;;;;;;;5.80;99.90;;;;;;5057617;28;20051;-77
2021/12/18 12:23:00;;;;;;;27.60;14.93;;;5.80;99.90;;;;;;5054382;28;20039;-77
2021/12/18 12:25:42;;;;;;;32.65;17.58;;;5.80;99.90;;;;;;5056475;28;20487;-78
2021/12/18 12:28:13;;;;;;;29.45;16.73;;;5.80;99.90;;;;;;5055295;28;20045;-77
2021/12/18 12:30:44;;;;;;;30.95;16.92;;;5.80;99.90;;;;;;5055935;28;20104;-77
2021/12/18 12:33:21;;;;;;;36.90;18.73;;;5.80;99.90;;;;;;5054556;28;20037;-78
2021/12/18 12:36:05;;;;;;;36.80;18.75;;;5.70;99.90;;;;;;5053995;28;20137;-76
2021/12/18 12:38:37;;;;;;;34.25;17.92;;;5.80;99.90;;;;;;5055169;28;20071;-77
2021/12/18 12:41:28;;;;;;;37.65;19.38;;;5.90;99.90;;;;;;5059070;28;20049;-77
2021/12/18 12:43:57;;;;;;;34.40;19.50;;;5.90;99.90;;;;;;5059190;28;20110;-81
2021/12/18 12:46:25;;;;;;;38.35;21.42;;;5.80;99.90;;;;;;5058753;28;20088;-81
2021/12/18 12:49:04;;;;;;;38.40;20.92;;;5.80;99.90;;;;;;5057465;28;20041;-80
2021/12/18 12:52:07;;;;;;;42.65;22.05;;;5.80;99.90;;;;;;5057895;28;20057;-80
2021/12/18 12:54:54;;;;;;;40.38;23.85;;;5.90;99.90;;;;;;5058942;28;20407;-79
2021/12/18 12:57:42;;;;;;;44.83;25.25;;;6.00;99.90;;;;;;5058501;28;20072;-80
2021/12/18 13:00:42;;;;;;;46.60;26.02;;;6.10;99.90;;;;;;5057515;28;20080;-79
2021/12/18 13:03:41;;;;;;;34.13;19.98;;;6.20;99.90;;;;;;5056662;28;20037;-78
2021/12/18 13:06:16;;;;;;;40.05;21.17;;;6.20;99.90;;;;;;5047278;28;20107;-80
2021/12/18 13:08:46;;;;;;;40.80;23.13;;;6.20;99.90;;;;;;5056694;28;20143;-81
2021/12/18 13:11:22;;;;;;;42.95;23.98;;;6.10;99.90;;;;;;5058258;28;20082;-80
2021/12/18 13:13:50;;;;;;;49.25;23.20;;;6.20;99.90;;;;;;5058260;28;20041;-81
2021/12/18 13:16:18;;;;;;;38.45;22.90;;;6.20;99.90;;;;;;5057982;28;20049;-80
2021/12/18 13:18:49;;;;;;;38.63;20.75;;;6.30;99.90;;;;;;5058196;28;20055;-79
2021/12/18 13:21:18;;;;;;;37.92;21.48;;;6.30;99.90;;;;;;5058894;28;20060;-79
2021/12/18 13:23:52;;;;;;;33.38;19.65;;;6.30;99.90;;;;;;5057422;28;20041;-80
2021/12/18 13:26:27;;;;;;;32.08;17.23;;;6.30;99.90;;;;;;5057053;28;20059;-79
2021/12/18 13:28:58;;;;;;;33.17;18.83;;;6.40;99.90;;;;;;5058248;28;20049;-79
2021/12/18 13:31:28;;;;;;;34.20;18.30;;;6.30;99.90;;;;;;5058889;28;20411;-80
2021/12/18 13:34:01;;;;;;;32.92;18.27;;;6.30;99.90;;;;;;5059120;28;20048;-80